Niagara District Airport

CYSN · 安大略, 加拿大

2023年1月31日 15:002023年1月31日 21:00有效
时间
星期二
15:00
星期二
16:00
星期二
17:00
星期二
18:00
星期二
19:00
星期二
20:00
代码
VFR
VFR
VFR
VFR
VFR
VFR
天气
碎云
碎云
碎云
碎云
碎云
碎云
能见度
6 mi+
6 mi+
6 mi+
6 mi+
6 mi+
6 mi+
天花板
3.000 ft
3.000 ft
3.000 ft
3.000 ft
3.000 ft
3.000 ft
220°
220°
220°
220°
220°
220°
220°
220°
220°
220°
220°
220°
速度
6 kt
6 kt
6 kt
6 kt
6 kt
6 kt
阵风
温度/星期日
17:27

原版的

TAF CYSN 311940Z 3120/0102 22006KT P6SM BKN030 BKN130 RMK NXT FCST BY 011400Z

TAF Niagara District Airport

Niagara District Airport是,加拿大中的中型机场。 该机场有3条跑道: 6/24, 11/29 和 19/1. 该领域的国际民航组织标志是CYSN 它的国际航空运输协会代码是YCM.

这份报告是针对2023年1月31日 14:40, 当地时间在Niagara District Airport进行的。 从2023年1月31日 15:00到2023年1月31日 21:00, 当地时间有效.

预报

  • 在星期二 15:00和21:00之间

    • 风: 风来自220°方向,速度为6 kt。
    • 能见度: 6 mi 或者更多
    • 乌云: 碎云在3.000 ft的高度 和 碎云在13.000 ft的高度.

白天

今天,太阳从07:33升起,在17:27降落。 这适用于Niagara District Airport,世界夏令时可能有所不同。 当地时间与世界标准时间之间的时差为-5 小时。 当前,没有夏令时有效。

我们和第三方通过cookies跟踪您在我们网站上的互联网行为。如果你继续,我们认为你同意我们的饼干政策